sensor_id;sensor_type;location;lat;lon;timestamp;pressure;altitude;pressure_sealevel;temperature;humidity
39405;BME280;25121;51.090;17.038;2023-05-16T00:00:37;99418.66;;;12.50;nan
39405;BME280;25121;51.090;17.038;2023-05-16T00:02:08;99417.00;;;12.49;nan
39405;BME280;25121;51.090;17.038;2023-05-16T00:03:35;99424.06;;;12.50;nan
39405;BME280;25121;51.090;17.038;2023-05-16T00:04:57;99420.31;;;12.52;nan
39405;BME280;25121;51.090;17.038;2023-05-16T00:06:21;99418.66;;;12.50;nan
39405;BME280;25121;51.090;17.038;2023-05-16T00:07:46;99430.25;;;12.51;nan
39405;BME280;25121;51.090;17.038;2023-05-16T00:09:08;99426.13;;;12.48;nan
39405;BME280;25121;51.090;17.038;2023-05-16T00:10:29;99424.25;;;12.49;nan
39405;BME280;25121;51.090;17.038;2023-05-16T00:11:51;99419.91;;;12.48;nan
39405;BME280;25121;51.090;17.038;2023-05-16T00:13:13;99420.91;;;12.47;nan
39405;BME280;25121;51.090;17.038;2023-05-16T00:14:35;99424.66;;;12.46;nan
39405;BME280;25121;51.090;17.038;2023-05-16T00:15:57;99416.56;;;12.46;nan
39405;BME280;25121;51.090;17.038;2023-05-16T00:17:19;99424.03;;;12.44;nan
39405;BME280;25121;51.090;17.038;2023-05-16T00:18:41;99431.09;;;12.45;nan
39405;BME280;25121;51.090;17.038;2023-05-16T00:20:06;99423.22;;;12.43;nan
39405;BME280;25121;51.090;17.038;2023-05-16T00:21:33;99420.72;;;12.35;nan
39405;BME280;25121;51.090;17.038;2023-05-16T00:22:55;99446.00;;;12.41;nan
39405;BME280;25121;51.090;17.038;2023-05-16T00:24:18;99438.75;;;12.41;nan
39405;BME280;25121;51.090;17.038;2023-05-16T00:25:42;99441.44;;;12.41;nan
39405;BME280;25121;51.090;17.038;2023-05-16T00:27:04;99429.00;;;12.40;nan
39405;BME280;25121;51.090;17.038;2023-05-16T00:28:26;99437.69;;;12.36;nan
39405;BME280;25121;51.090;17.038;2023-05-16T00:29:50;99441.84;;;12.38;nan
39405;BME280;25121;51.090;17.038;2023-05-16T00:31:11;99443.72;;;12.38;nan
39405;BME280;25121;51.090;17.038;2023-05-16T00:32:35;99434.19;;;12.35;nan
39405;BME280;25121;51.090;17.038;2023-05-16T00:34:00;99436.88;;;12.35;nan
39405;BME280;25121;51.090;17.038;2023-05-16T00:35:23;99439.56;;;12.35;nan
39405;BME280;25121;51.090;17.038;2023-05-16T00:36:46;99437.25;;;12.32;nan
39405;BME280;25121;51.090;17.038;2023-05-16T00:38:08;99440.56;;;12.34;nan
39405;BME280;25121;51.090;17.038;2023-05-16T00:39:33;99435.19;;;12.34;nan
39405;BME280;25121;51.090;17.038;2023-05-16T00:40:57;99439.56;;;12.35;nan
39405;BME280;25121;51.090;17.038;2023-05-16T00:42:19;99438.75;;;12.35;nan
39405;BME280;25121;51.090;17.038;2023-05-16T00:43:44;99441.44;;;12.35;nan
39405;BME280;25121;51.090;17.038;2023-05-16T00:45:08;99445.16;;;12.34;nan
39405;BME280;25121;51.090;17.038;2023-05-16T00:46:30;99432.91;;;12.31;nan
39405;BME280;25121;51.090;17.038;2023-05-16T00:47:53;99440.56;;;12.34;nan
39405;BME280;25121;51.090;17.038;2023-05-16T00:49:17;99434.56;;;12.32;nan
39405;BME280;25121;51.090;17.038;2023-05-16T00:50:40;99434.38;;;12.34;nan
39405;BME280;25121;51.090;17.038;2023-05-16T00:52:06;99441.63;;;12.33;nan
39405;BME280;25121;51.090;17.038;2023-05-16T00:53:28;99442.44;;;12.34;nan
39405;BME280;25121;51.090;17.038;2023-05-16T00:54:51;99447.84;;;12.34;nan
39405;BME280;25121;51.090;17.038;2023-05-16T00:56:12;99445.34;;;12.32;nan
39405;BME280;25121;51.090;17.038;2023-05-16T00:57:37;99444.50;;;12.32;nan
39405;BME280;25121;51.090;17.038;2023-05-16T00:59:01;99444.31;;;12.33;nan
39405;BME280;25121;51.090;17.038;2023-05-16T01:00:25;99441.81;;;12.32;nan
39405;BME280;25121;51.090;17.038;2023-05-16T01:01:47;99447.19;;;12.32;nan
39405;BME280;25121;51.090;17.038;2023-05-16T01:03:10;99449.06;;;12.31;nan
39405;BME280;25121;51.090;17.038;2023-05-16T01:04:33;99455.50;;;12.30;nan
39405;BME280;25121;51.090;17.038;2023-05-16T01:06:00;99450.94;;;12.31;nan
39405;BME280;25121;51.090;17.038;2023-05-16T01:07:24;99452.81;;;12.30;nan
39405;BME280;25121;51.090;17.038;2023-05-16T01:08:45;99455.50;;;12.30;nan
39405;BME280;25121;51.090;17.038;2023-05-16T01:10:08;99454.66;;;12.29;nan
39405;BME280;25121;51.090;17.038;2023-05-16T01:11:42;99448.44;;;12.29;nan
39405;BME280;25121;51.090;17.038;2023-05-16T01:13:17;99444.91;;;12.28;nan
39405;BME280;25121;51.090;17.038;2023-05-16T01:14:50;99458.59;;;12.27;nan
39405;BME280;25121;51.090;17.038;2023-05-16T01:16:21;99451.34;;;12.27;nan
39405;BME280;25121;51.090;17.038;2023-05-16T01:17:53;99453.19;;;12.27;nan
39405;BME280;25121;51.090;17.038;2023-05-16T01:19:37;99455.28;;;12.25;nan
39405;BME280;25121;51.090;17.038;2023-05-16T01:21:14;99458.81;;;12.25;nan
39405;BME280;25121;51.090;17.038;2023-05-16T01:22:51;99463.38;;;12.25;nan
39405;BME280;25121;51.090;17.038;2023-05-16T01:24:17;99461.50;;;12.25;nan
39405;BME280;25121;51.090;17.038;2023-05-16T01:25:55;99466.06;;;12.25;nan
39405;BME280;25121;51.090;17.038;2023-05-16T01:27:22;99462.50;;;12.24;nan
39405;BME280;25121;51.090;17.038;2023-05-16T01:28:46;99465.44;;;12.23;nan
39405;BME280;25121;51.090;17.038;2023-05-16T01:30:14;99466.06;;;12.25;nan
39405;BME280;25121;51.090;17.038;2023-05-16T01:31:36;99465.44;;;12.23;nan
39405;BME280;25121;51.090;17.038;2023-05-16T01:32:58;99464.38;;;12.24;nan
39405;BME280;25121;51.090;17.038;2023-05-16T01:34:19;99466.25;;;12.23;nan
39405;BME280;25121;51.090;17.038;2023-05-16T01:35:47;99461.91;;;12.22;nan
39405;BME280;25121;51.090;17.038;2023-05-16T01:37:17;99469.13;;;12.22;nan
39405;BME280;25121;51.090;17.038;2023-05-16T01:38:47;99465.63;;;12.21;nan
39405;BME280;25121;51.090;17.038;2023-05-16T01:40:16;99473.91;;;12.20;nan
39405;BME280;25121;51.090;17.038;2023-05-16T01:41:48;99478.66;;;12.18;nan
39405;BME280;25121;51.090;17.038;2023-05-16T01:43:19;99469.94;;;12.16;nan
39405;BME280;25121;51.090;17.038;2023-05-16T01:44:44;99482.38;;;12.17;nan
39405;BME280;25121;51.090;17.038;2023-05-16T01:46:10;99482.38;;;12.17;nan
39405;BME280;25121;51.090;17.038;2023-05-16T01:47:34;99488.81;;;12.16;nan
39405;BME280;25121;51.090;17.038;2023-05-16T01:49:12;99481.75;;;12.15;nan
39405;BME280;25121;51.090;17.038;2023-05-16T01:50:43;99485.28;;;12.15;nan
39405;BME280;25121;51.090;17.038;2023-05-16T01:52:15;99484.66;;;12.13;nan
39405;BME280;25121;51.090;17.038;2023-05-16T01:53:41;99483.59;;;12.14;nan
39405;BME280;25121;51.090;17.038;2023-05-16T01:55:10;99482.97;;;12.12;nan
39405;BME280;25121;51.090;17.038;2023-05-16T01:56:33;99492.09;;;12.11;nan
39405;BME280;25121;51.090;17.038;2023-05-16T01:57:58;99490.63;;;12.09;nan
39405;BME280;25121;51.090;17.038;2023-05-16T01:59:24;99494.97;;;12.10;nan
39405;BME280;25121;51.090;17.038;2023-05-16T02:00:46;99496.84;;;12.09;nan
39405;BME280;25121;51.090;17.038;2023-05-16T02:02:07;99492.69;;;12.06;nan
39405;BME280;25121;51.090;17.038;2023-05-16T02:03:31;99491.88;;;12.06;nan
39405;BME280;25121;51.090;17.038;2023-05-16T02:04:52;99496.19;;;12.07;nan
39405;BME280;25121;51.090;17.038;2023-05-16T02:06:15;99497.25;;;12.06;nan
39405;BME280;25121;51.090;17.038;2023-05-16T02:07:37;99500.13;;;12.04;nan
39405;BME280;25121;51.090;17.038;2023-05-16T02:09:00;99500.34;;;12.03;nan
39405;BME280;25121;51.090;17.038;2023-05-16T02:10:22;99513.34;;;11.99;nan
39405;BME280;25121;51.090;17.038;2023-05-16T02:11:44;99510.47;;;12.01;nan
39405;BME280;25121;51.090;17.038;2023-05-16T02:13:08;99510.47;;;12.01;nan
39405;BME280;25121;51.090;17.038;2023-05-16T02:14:31;99508.78;;;12.00;nan
39405;BME280;25121;51.090;17.038;2023-05-16T02:16:03;99507.97;;;11.99;nan
39405;BME280;25121;51.090;17.038;2023-05-16T02:17:25;99506.31;;;11.98;nan
39405;BME280;25121;51.090;17.038;2023-05-16T02:18:48;99508.19;;;11.98;nan
39405;BME280;25121;51.090;17.038;2023-05-16T02:20:11;99507.97;;;11.99;nan
39405;BME280;25121;51.090;17.038;2023-05-16T02:21:33;99507.16;;;11.99;nan
39405;BME280;25121;51.090;17.038;2023-05-16T02:22:54;99511.47;;;11.93;nan
39405;BME280;25121;51.090;17.038;2023-05-16T02:24:15;99507.56;;;11.96;nan
39405;BME280;25121;51.090;17.038;2023-05-16T02:25:38;99504.03;;;11.95;nan
39405;BME280;25121;51.090;17.038;2023-05-16T02:27:02;99505.88;;;11.95;nan
39405;BME280;25121;51.090;17.038;2023-05-16T02:28:24;99499.66;;;11.94;nan
39405;BME280;25121;51.090;17.038;2023-05-16T02:29:47;99505.03;;;11.94;nan
39405;BME280;25121;51.090;17.038;2023-05-16T02:31:10;99502.34;;;11.94;nan
39405;BME280;25121;51.090;17.038;2023-05-16T02:32:32;99500.72;;;11.93;nan
39405;BME280;25121;51.090;17.038;2023-05-16T02:33:55;99504.41;;;11.92;nan
39405;BME280;25121;51.090;17.038;2023-05-16T02:35:18;99500.72;;;11.93;nan
39405;BME280;25121;51.090;17.038;2023-05-16T02:36:39;99498.59;;;11.89;nan
39405;BME280;25121;51.090;17.038;2023-05-16T02:38:02;99493.84;;;11.91;nan
39405;BME280;25121;51.090;17.038;2023-05-16T02:39:23;99501.09;;;11.90;nan
39405;BME280;25121;51.090;17.038;2023-05-16T02:40:46;99500.25;;;11.90;nan
39405;BME280;25121;51.090;17.038;2023-05-16T02:42:07;99514.56;;;11.90;nan
39405;BME280;25121;51.090;17.038;2023-05-16T02:43:29;99506.50;;;11.90;nan
39405;BME280;25121;51.090;17.038;2023-05-16T02:44:52;99507.31;;;11.91;nan
39405;BME280;25121;51.090;17.038;2023-05-16T02:46:22;99512.88;;;11.89;nan
39405;BME280;25121;51.090;17.038;2023-05-16T02:47:45;99508.34;;;11.90;nan
39405;BME280;25121;51.090;17.038;2023-05-16T02:49:07;99511.03;;;11.90;nan
39405;BME280;25121;51.090;17.038;2023-05-16T02:50:34;99519.97;;;11.90;nan
39405;BME280;25121;51.090;17.038;2023-05-16T02:51:56;99516.22;;;11.91;nan
39405;BME280;25121;51.090;17.038;2023-05-16T02:53:18;99515.41;;;11.91;nan
39405;BME280;25121;51.090;17.038;2023-05-16T02:54:39;99517.25;;;11.90;nan
39405;BME280;25121;51.090;17.038;2023-05-16T02:56:01;99515.41;;;11.91;nan
39405;BME280;25121;51.090;17.038;2023-05-16T02:57:26;99511.66;;;11.92;nan
39405;BME280;25121;51.090;17.038;2023-05-16T02:58:49;99505.63;;;11.90;nan
39405;BME280;25121;51.090;17.038;2023-05-16T03:00:14;99517.88;;;11.92;nan
39405;BME280;25121;51.090;17.038;2023-05-16T03:01:39;99519.75;;;11.92;nan
39405;BME280;25121;51.090;17.038;2023-05-16T03:03:04;99505.44;;;11.91;nan
39405;BME280;25121;51.090;17.038;2023-05-16T03:04:27;99516.03;;;11.93;nan
39405;BME280;25121;51.090;17.038;2023-05-16T03:05:49;99517.88;;;11.92;nan
39405;BME280;25121;51.090;17.038;2023-05-16T03:07:11;99519.56;;;11.93;nan
39405;BME280;25121;51.090;17.038;2023-05-16T03:08:33;99519.56;;;11.93;nan
39405;BME280;25121;51.090;17.038;2023-05-16T03:09:57;99520.19;;;11.95;nan
39405;BME280;25121;51.090;17.038;2023-05-16T03:11:19;99518.91;;;11.91;nan
39405;BME280;25121;51.090;17.038;2023-05-16T03:12:42;99515.00;;;11.94;nan
39405;BME280;25121;51.090;17.038;2023-05-16T03:14:06;99516.66;;;11.95;nan
39405;BME280;25121;51.090;17.038;2023-05-16T03:15:30;99513.13;;;11.94;nan
39405;BME280;25121;51.090;17.038;2023-05-16T03:16:51;99517.69;;;11.94;nan
39405;BME280;25121;51.090;17.038;2023-05-16T03:18:14;99524.34;;;11.98;nan
39405;BME280;25121;51.090;17.038;2023-05-16T03:19:42;99524.34;;;11.98;nan
39405;BME280;25121;51.090;17.038;2023-05-16T03:21:07;99521.44;;;11.99;nan
39405;BME280;25121;51.090;17.038;2023-05-16T03:22:29;99517.09;;;11.98;nan
39405;BME280;25121;51.090;17.038;2023-05-16T03:23:52;99522.06;;;12.01;nan
39405;BME280;25121;51.090;17.038;2023-05-16T03:25:14;99516.50;;;12.03;nan
39405;BME280;25121;51.090;17.038;2023-05-16T03:26:36;99512.59;;;12.05;nan
39405;BME280;25121;51.090;17.038;2023-05-16T03:28:01;99510.91;;;12.04;nan
39405;BME280;25121;51.090;17.038;2023-05-16T03:29:24;99508.84;;;12.06;nan
39405;BME280;25121;51.090;17.038;2023-05-16T03:30:48;99506.97;;;12.07;nan
39405;BME280;25121;51.090;17.038;2023-05-16T03:32:10;99515.28;;;12.12;nan
39405;BME280;25121;51.090;17.038;2023-05-16T03:33:32;99509.72;;;12.14;nan
39405;BME280;25121;51.090;17.038;2023-05-16T03:34:55;99514.91;;;12.15;nan
39405;BME280;25121;51.090;17.038;2023-05-16T03:36:19;99515.53;;;12.17;nan
39405;BME280;25121;51.090;17.038;2023-05-16T03:37:46;99525.69;;;12.22;nan
39405;BME280;25121;51.090;17.038;2023-05-16T03:39:08;99528.22;;;12.23;nan
39405;BME280;25121;51.090;17.038;2023-05-16T03:40:32;99525.09;;;12.26;nan
39405;BME280;25121;51.090;17.038;2023-05-16T03:41:54;99528.03;;;12.32;nan
39405;BME280;25121;51.090;17.038;2023-05-16T03:43:16;99530.13;;;12.36;nan
39405;BME280;25121;51.090;17.038;2023-05-16T03:44:43;99526.19;;;12.39;nan
39405;BME280;25121;51.090;17.038;2023-05-16T03:46:07;99528.28;;;12.43;nan
39405;BME280;25121;51.090;17.038;2023-05-16T03:47:32;99533.91;;;12.48;nan
39405;BME280;25121;51.090;17.038;2023-05-16T03:48:53;99534.34;;;12.52;nan
39405;BME280;25121;51.090;17.038;2023-05-16T03:50:15;99539.97;;;12.57;nan
39405;BME280;25121;51.090;17.038;2023-05-16T03:51:36;99541.81;;;12.57;nan
39405;BME280;25121;51.090;17.038;2023-05-16T03:52:59;99535.63;;;12.63;nan
39405;BME280;25121;51.090;17.038;2023-05-16T03:54:20;99539.78;;;12.65;nan
39405;BME280;25121;51.090;17.038;2023-05-16T03:55:44;99542.69;;;12.70;nan
39405;BME280;25121;51.090;17.038;2023-05-16T03:57:08;99548.31;;;12.76;nan
39405;BME280;25121;51.090;17.038;2023-05-16T03:58:30;99548.53;;;12.81;nan
39405;BME280;25121;51.090;17.038;2023-05-16T03:59:54;99553.31;;;12.85;nan
39405;BME280;25121;51.090;17.038;2023-05-16T04:01:21;99560.59;;;12.91;nan
39405;BME280;25121;51.090;17.038;2023-05-16T04:02:49;99555.63;;;12.95;nan
39405;BME280;25121;51.090;17.038;2023-05-16T04:04:18;99559.56;;;12.99;nan
39405;BME280;25121;51.090;17.038;2023-05-16T04:05:39;99564.97;;;13.06;nan
39405;BME280;25121;51.090;17.038;2023-05-16T04:07:02;99566.44;;;13.08;nan
39405;BME280;25121;51.090;17.038;2023-05-16T04:08:24;99577.44;;;13.13;nan
39405;BME280;25121;51.090;17.038;2023-05-16T04:09:46;99578.72;;;13.18;nan
39405;BME280;25121;51.090;17.038;2023-05-16T04:11:08;99580.16;;;13.20;nan
39405;BME280;25121;51.090;17.038;2023-05-16T04:12:32;99579.75;;;13.23;nan
39405;BME280;25121;51.090;17.038;2023-05-16T04:13:56;99584.72;;;13.26;nan
39405;BME280;25121;51.090;17.038;2023-05-16T04:15:23;99588.72;;;13.30;nan
39405;BME280;25121;51.090;17.038;2023-05-16T04:16:48;99591.00;;;13.33;nan
39405;BME280;25121;51.090;17.038;2023-05-16T04:18:11;99578.75;;;13.31;nan
39405;BME280;25121;51.090;17.038;2023-05-16T04:19:34;99588.13;;;13.42;nan
39405;BME280;25121;51.090;17.038;2023-05-16T04:20:56;99598.28;;;13.46;nan
39405;BME280;25121;51.090;17.038;2023-05-16T04:22:20;99597.91;;;13.49;nan
39405;BME280;25121;51.090;17.038;2023-05-16T04:23:42;99604.34;;;13.55;nan
39405;BME280;25121;51.090;17.038;2023-05-16T04:25:05;99598.31;;;13.60;nan
39405;BME280;25121;51.090;17.038;2023-05-16T04:26:26;99602.66;;;13.61;nan
39405;BME280;25121;51.090;17.038;2023-05-16T04:27:49;99605.38;;;13.67;nan
39405;BME280;25121;51.090;17.038;2023-05-16T04:29:10;99604.53;;;13.73;nan
39405;BME280;25121;51.090;17.038;2023-05-16T04:30:33;99606.41;;;13.79;nan
39405;BME280;25121;51.090;17.038;2023-05-16T04:32:00;99608.28;;;13.86;nan
39405;BME280;25121;51.090;17.038;2023-05-16T04:33:23;99614.72;;;13.91;nan
39405;BME280;25121;51.090;17.038;2023-05-16T04:34:44;99606.59;;;13.98;nan
39405;BME280;25121;51.090;17.038;2023-05-16T04:36:07;99613.66;;;14.06;nan
39405;BME280;25121;51.090;17.038;2023-05-16T04:37:30;99616.16;;;14.14;nan
39405;BME280;25121;51.090;17.038;2023-05-16T04:38:51;99609.47;;;14.23;nan
39405;BME280;25121;51.090;17.038;2023-05-16T04:40:14;99598.47;;;14.31;nan
39405;BME280;25121;51.090;17.038;2023-05-16T04:41:39;99592.63;;;14.41;nan
39405;BME280;25121;51.090;17.038;2023-05-16T04:43:03;99584.88;;;14.51;nan
39405;BME280;25121;51.090;17.038;2023-05-16T04:44:26;99575.09;;;14.63;nan
39405;BME280;25121;51.090;17.038;2023-05-16T04:45:49;99572.13;;;14.72;nan
39405;BME280;25121;51.090;17.038;2023-05-16T04:47:15;99572.31;;;14.83;nan
39405;BME280;25121;51.090;17.038;2023-05-16T04:48:48;99579.09;;;14.93;nan
39405;BME280;25121;51.090;17.038;2023-05-16T04:50:11;99574.72;;;14.98;nan
39405;BME280;25121;51.090;17.038;2023-05-16T04:51:32;99579.84;;;15.13;nan
39405;BME280;25121;51.090;17.038;2023-05-16T04:52:57;99590.97;;;15.30;nan
39405;BME280;25121;51.090;17.038;2023-05-16T04:54:19;99587.94;;;15.45;nan
39405;BME280;25121;51.090;17.038;2023-05-16T04:55:46;99591.56;;;15.64;nan
39405;BME280;25121;51.090;17.038;2023-05-16T04:57:19;99593.94;;;15.85;nan
39405;BME280;25121;51.090;17.038;2023-05-16T04:58:40;99593.66;;;16.12;nan
39405;BME280;25121;51.090;17.038;2023-05-16T05:00:05;99606.13;;;16.38;nan
39405;BME280;25121;51.090;17.038;2023-05-16T05:01:28;99607.25;;;16.67;nan
39405;BME280;25121;51.090;17.038;2023-05-16T05:02:54;99608.38;;;16.96;nan
39405;BME280;25121;51.090;17.038;2023-05-16T05:04:22;99609.44;;;17.26;nan
39405;BME280;25121;51.090;17.038;2023-05-16T05:05:44;99620.53;;;17.54;nan
39405;BME280;25121;51.090;17.038;2023-05-16T05:07:08;99622.00;;;17.80;nan
39405;BME280;25121;51.090;17.038;2023-05-16T05:08:30;99624.28;;;18.07;nan
39405;BME280;25121;51.090;17.038;2023-05-16T05:09:53;99625.13;;;18.31;nan
39405;BME280;25121;51.090;17.038;2023-05-16T05:11:18;99619.88;;;18.53;nan
39405;BME280;25121;51.090;17.038;2023-05-16T05:12:42;99634.09;;;18.79;nan
39405;BME280;25121;51.090;17.038;2023-05-16T05:14:04;99637.56;;;19.03;nan
39405;BME280;25121;51.090;17.038;2023-05-16T05:15:47;99643.16;;;19.25;nan
39405;BME280;25121;51.090;17.038;2023-05-16T05:17:16;99660.25;;;19.49;nan
39405;BME280;25121;51.090;17.038;2023-05-16T05:18:40;99650.69;;;19.63;nan
39405;BME280;25121;51.090;17.038;2023-05-16T05:20:03;99658.00;;;19.74;nan
39405;BME280;25121;51.090;17.038;2023-05-16T05:21:33;99666.69;;;19.88;nan
39405;BME280;25121;51.090;17.038;2023-05-16T05:22:56;99662.75;;;20.13;nan
39405;BME280;25121;51.090;17.038;2023-05-16T05:24:18;99663.88;;;20.34;nan
39405;BME280;25121;51.090;17.038;2023-05-16T05:25:40;99667.78;;;20.55;nan
39405;BME280;25121;51.090;17.038;2023-05-16T05:27:02;99664.97;;;20.72;nan
39405;BME280;25121;51.090;17.038;2023-05-16T05:28:27;99676.13;;;20.87;nan
39405;BME280;25121;51.090;17.038;2023-05-16T05:29:54;99669.53;;;21.05;nan
39405;BME280;25121;51.090;17.038;2023-05-16T05:31:16;99683.66;;;21.24;nan
39405;BME280;25121;51.090;17.038;2023-05-16T05:32:41;99679.03;;;21.46;nan
39405;BME280;25121;51.090;17.038;2023-05-16T05:34:04;99678.16;;;21.68;nan
39405;BME280;25121;51.090;17.038;2023-05-16T05:35:27;99678.91;;;21.90;nan
39405;BME280;25121;51.090;17.038;2023-05-16T05:36:49;99675.53;;;22.10;nan
39405;BME280;25121;51.090;17.038;2023-05-16T05:38:11;99674.91;;;22.35;nan
39405;BME280;25121;51.090;17.038;2023-05-16T05:39:34;99688.63;;;22.41;nan
39405;BME280;25121;51.090;17.038;2023-05-16T05:40:56;99691.25;;;22.63;nan
39405;BME280;25121;51.090;17.038;2023-05-16T05:42:18;99686.72;;;22.78;nan
39405;BME280;25121;51.090;17.038;2023-05-16T05:43:39;99691.72;;;22.97;nan
39405;BME280;25121;51.090;17.038;2023-05-16T05:45:04;99694.56;;;23.12;nan
39405;BME280;25121;51.090;17.038;2023-05-16T05:46:31;99692.72;;;23.28;nan
39405;BME280;25121;51.090;17.038;2023-05-16T05:47:54;99691.38;;;23.46;nan
39405;BME280;25121;51.090;17.038;2023-05-16T05:49:18;99691.69;;;23.60;nan
39405;BME280;25121;51.090;17.038;2023-05-16T05:50:39;99695.59;;;23.74;nan
39405;BME280;25121;51.090;17.038;2023-05-16T05:52:04;99680.50;;;23.87;nan
39405;BME280;25121;51.090;17.038;2023-05-16T05:53:27;99691.78;;;23.96;nan
39405;BME280;25121;51.090;17.038;2023-05-16T05:54:52;99695.34;;;24.12;nan
39405;BME280;25121;51.090;17.038;2023-05-16T05:56:14;99694.81;;;24.20;nan
39405;BME280;25121;51.090;17.038;2023-05-16T05:57:37;99690.69;;;24.27;nan
39405;BME280;25121;51.090;17.038;2023-05-16T05:59:04;99684.63;;;24.36;nan
39405;BME280;25121;51.090;17.038;2023-05-16T06:00:26;99681.31;;;24.44;nan
39405;BME280;25121;51.090;17.038;2023-05-16T06:01:49;99686.31;;;24.52;nan
39405;BME280;25121;51.090;17.038;2023-05-16T06:03:12;99687.91;;;24.63;nan
39405;BME280;25121;51.090;17.038;2023-05-16T06:04:42;99689.00;;;24.67;nan
39405;BME280;25121;51.090;17.038;2023-05-16T06:06:09;99683.19;;;24.79;nan
39405;BME280;25121;51.090;17.038;2023-05-16T06:07:31;99685.63;;;24.91;nan
39405;BME280;25121;51.090;17.038;2023-05-16T06:11:44;99689.34;;;25.31;nan
39405;BME280;25121;51.090;17.038;2023-05-16T06:13:06;99697.22;;;25.48;nan
39405;BME280;25121;51.090;17.038;2023-05-16T06:14:29;99695.16;;;25.69;nan
39405;BME280;25121;51.090;17.038;2023-05-16T06:15:52;99692.34;;;25.89;nan
39405;BME280;25121;51.090;17.038;2023-05-16T06:17:20;99702.91;;;26.11;nan
39405;BME280;25121;51.090;17.038;2023-05-16T06:18:43;99700.25;;;26.30;nan
39405;BME280;25121;51.090;17.038;2023-05-16T06:20:12;99693.44;;;26.52;nan
39405;BME280;25121;51.090;17.038;2023-05-16T06:21:37;99696.53;;;26.74;nan
39405;BME280;25121;51.090;17.038;2023-05-16T06:23:00;99696.84;;;26.97;nan
39405;BME280;25121;51.090;17.038;2023-05-16T06:24:21;99706.19;;;27.01;nan
39405;BME280;25121;51.090;17.038;2023-05-16T06:25:47;99695.91;;;27.06;nan
39405;BME280;25121;51.090;17.038;2023-05-16T06:27:12;99703.47;;;27.20;nan
39405;BME280;25121;51.090;17.038;2023-05-16T06:28:38;99699.34;;;27.41;nan
39405;BME280;25121;51.090;17.038;2023-05-16T06:30:00;99707.69;;;27.55;nan
39405;BME280;25121;51.090;17.038;2023-05-16T06:31:22;99706.72;;;27.65;nan
39405;BME280;25121;51.090;17.038;2023-05-16T06:32:45;99706.97;;;27.68;nan
39405;BME280;25121;51.090;17.038;2023-05-16T06:34:09;99714.06;;;27.94;nan
39405;BME280;25121;51.090;17.038;2023-05-16T06:35:33;99709.47;;;28.22;nan
39405;BME280;25121;51.090;17.038;2023-05-16T06:37:01;99716.28;;;28.43;nan
39405;BME280;25121;51.090;17.038;2023-05-16T06:38:30;99719.34;;;28.61;nan
39405;BME280;25121;51.090;17.038;2023-05-16T06:39:58;99725.63;;;28.80;nan
39405;BME280;25121;51.090;17.038;2023-05-16T06:41:24;99723.34;;;28.96;nan
39405;BME280;25121;51.090;17.038;2023-05-16T06:42:47;99726.16;;;29.10;nan
39405;BME280;25121;51.090;17.038;2023-05-16T06:44:12;99717.66;;;29.20;nan
39405;BME280;25121;51.090;17.038;2023-05-16T06:45:36;99718.25;;;29.45;nan
39405;BME280;25121;51.090;17.038;2023-05-16T06:47:03;99722.44;;;29.70;nan
39405;BME280;25121;51.090;17.038;2023-05-16T06:48:26;99727.72;;;29.80;nan
39405;BME280;25121;51.090;17.038;2023-05-16T06:49:52;99732.22;;;29.90;nan
39405;BME280;25121;51.090;17.038;2023-05-16T06:51:17;99729.63;;;29.93;nan
39405;BME280;25121;51.090;17.038;2023-05-16T06:52:39;99732.28;;;29.98;nan
39405;BME280;25121;51.090;17.038;2023-05-16T06:54:01;99739.25;;;29.96;nan
39405;BME280;25121;51.090;17.038;2023-05-16T06:55:24;99741.91;;;30.01;nan
39405;BME280;25121;51.090;17.038;2023-05-16T06:56:47;99738.53;;;30.04;nan
39405;BME280;25121;51.090;17.038;2023-05-16T06:58:10;99739.38;;;30.27;nan
39405;BME280;25121;51.090;17.038;2023-05-16T06:59:33;99738.72;;;30.53;nan
39405;BME280;25121;51.090;17.038;2023-05-16T07:00:55;99743.03;;;30.90;nan
39405;BME280;25121;51.090;17.038;2023-05-16T07:02:18;99746.06;;;31.20;nan
39405;BME280;25121;51.090;17.038;2023-05-16T07:03:46;99741.44;;;31.46;nan
39405;BME280;25121;51.090;17.038;2023-05-16T07:05:13;99746.41;;;31.75;nan
39405;BME280;25121;51.090;17.038;2023-05-16T07:06:37;99751.66;;;32.03;nan
39405;BME280;25121;51.090;17.038;2023-05-16T07:08:04;99744.28;;;32.25;nan
39405;BME280;25121;51.090;17.038;2023-05-16T07:09:51;99746.53;;;32.75;nan
39405;BME280;25121;51.090;17.038;2023-05-16T07:11:17;99747.34;;;33.14;nan
39405;BME280;25121;51.090;17.038;2023-05-16T07:12:40;99754.19;;;33.55;nan
39405;BME280;25121;51.090;17.038;2023-05-16T07:14:04;99762.59;;;33.97;nan
39405;BME280;25121;51.090;17.038;2023-05-16T07:18:37;99731.81;;;35.05;nan
39405;BME280;25121;51.090;17.038;2023-05-16T07:20:00;99741.22;;;35.50;nan
39405;BME280;25121;51.090;17.038;2023-05-16T07:21:24;99742.97;;;35.79;nan
39405;BME280;25121;51.090;17.038;2023-05-16T07:22:48;99737.53;;;35.98;nan
39405;BME280;25121;51.090;17.038;2023-05-16T07:24:12;99725.31;;;36.31;nan
39405;BME280;25121;51.090;17.038;2023-05-16T07:25:34;99729.72;;;36.60;nan
39405;BME280;25121;51.090;17.038;2023-05-16T07:27:00;99732.09;;;36.90;nan
39405;BME280;25121;51.090;17.038;2023-05-16T07:28:24;99738.69;;;37.29;nan
39405;BME280;25121;51.090;17.038;2023-05-16T07:29:46;99733.19;;;37.68;nan
39405;BME280;25121;51.090;17.038;2023-05-16T07:31:09;99733.34;;;37.76;nan
39405;BME280;25121;51.090;17.038;2023-05-16T07:32:40;99742.91;;;38.29;nan
39405;BME280;25121;51.090;17.038;2023-05-16T07:34:57;99736.78;;;38.89;nan
39405;BME280;25121;51.090;17.038;2023-05-16T07:36:23;99741.03;;;39.52;nan
39405;BME280;25121;51.090;17.038;2023-05-16T07:37:52;99742.09;;;39.40;nan
39405;BME280;25121;51.090;17.038;2023-05-16T07:41:47;99750.97;;;40.33;nan